Glenwood Springs, CO

10:58 PM MDT on September 17, 2014 (GMT -0600)
Eagle County Regional | Change Station
CLOSE
Current Station
Airport
Location: Eagle,
Elevation: 6539 ft
Nearby Weather Stations

Elev 6539 ft 39.64 °N, 106.91 °W | Updated 23 minutes ago

Clear
Clear
59 °F
Feels Like 59 °F
N
7
Wind Variable Wind from ENE

Today
High -- | Low -- °F
--% Chance of Precip.
Yesterday
High -- | Low -- °F
Precip. -- in
6:52 AM 7:14 PM
Waning Crescent, 30% visible
Pressure 30.19 in
Visibility 10.0 miles
Clouds Clear
Dew Point 37 °F
Humidity 45%
Rainfall 0.00 in
Snow Depth 0 in , 0 in , 0 in
UV 0 out of 12
Pollen 5.60 out of 12
Air Quality Not available.
Flu Activity Not available.
METAR KEGE 180435Z AUTO 07006KT 10SM CLR 15/03 A3019 RMK AO1

More Conditions Fewer Conditions

Pressure 30.19 in
Visibility 10.0 miles
Clouds Clear
Dew Point 37 °F
Humidity 45%
Rainfall 0.00 in
Snow Depth 0 in , 0 in , 0 in
UV 0 out of 12
Pollen 5.60 out of 12
Air Quality Not available.
Flu Activity Not available.
METAR KEGE 180435Z AUTO 07006KT 10SM CLR 15/03 A3019 RMK AO1

More Conditions Fewer Conditions

10-Day Weather Forecast

Almanac

Astronomy

Sep. 17, 2014 Rise Set
Actual Time 6:52 AM MDT 7:14 PM MDT
Civil Twilight 6:25 AM MDT 7:41 PM MDT
Nautical Twilight 5:53 AM MDT 8:12 PM MDT
Astronomical Twilight 5:21 AM MDT 8:45 PM MDT
Moon 12:56 AM MDT (9/17) 3:25 PM MDT (9/17)
Length of Visible Light 13h 15m
Length of Day
12h 22m
Tomorrow will be 2m 34s shorter.
Waning Crescent, 30% of the Moon is Illuminated
Sep 18
Waning Crescent
Sep 24
New
Oct 1
First Quarter
Oct 8
Full
Oct 15
Last Quarter

Yesterday's Extremes

State Highs State Lows

Community

WunderPhotos

Upload Photos

1,754,295 photos uploaded!

Nearby

Snow Depth

Station Depth Elevation
Dry Lake 0 in 8400 ft
Mancos 0 in 10000 ft
Copper Mountain 0 in 10500 ft
Elk River 0 in 8700 ft
Trapper Lake 0 in 9700 ft

Earthquake Activity

City Distance Mag. Time & Date
No recent earthquake activity has been reported nearby.
Minimum magnitude displayed is 2.5.

Coastal Water Temperatures

Place Temperature
No Stations Reporting

Nearby Weather Stations